sensor_id;sensor_type;location;lat;lon;timestamp;temperature;humidity
20946;DHT22;10632;51.276;7.116;2023-07-09T00:01:05;25.20;91.80
20946;DHT22;10632;51.276;7.116;2023-07-09T00:03:32;25.20;91.70
20946;DHT22;10632;51.276;7.116;2023-07-09T00:05:58;25.20;91.80
20946;DHT22;10632;51.276;7.116;2023-07-09T00:08:27;25.20;92.00
20946;DHT22;10632;51.276;7.116;2023-07-09T00:10:55;25.20;92.00
20946;DHT22;10632;51.276;7.116;2023-07-09T00:13:25;25.20;92.00
20946;DHT22;10632;51.276;7.116;2023-07-09T00:15:55;25.10;92.00
20946;DHT22;10632;51.276;7.116;2023-07-09T00:18:24;25.10;92.10
20946;DHT22;10632;51.276;7.116;2023-07-09T00:20:51;25.10;92.20
20946;DHT22;10632;51.276;7.116;2023-07-09T00:23:18;25.00;92.20
20946;DHT22;10632;51.276;7.116;2023-07-09T00:25:46;25.00;92.60
20946;DHT22;10632;51.276;7.116;2023-07-09T00:28:13;25.00;92.60
20946;DHT22;10632;51.276;7.116;2023-07-09T00:30:42;25.00;92.70
20946;DHT22;10632;51.276;7.116;2023-07-09T00:33:11;24.90;92.90
20946;DHT22;10632;51.276;7.116;2023-07-09T00:35:40;24.80;93.10
20946;DHT22;10632;51.276;7.116;2023-07-09T00:38:13;24.80;93.50
20946;DHT22;10632;51.276;7.116;2023-07-09T00:40:46;24.60;93.60
20946;DHT22;10632;51.276;7.116;2023-07-09T00:43:16;24.60;93.80
20946;DHT22;10632;51.276;7.116;2023-07-09T00:45:44;24.40;94.00
20946;DHT22;10632;51.276;7.116;2023-07-09T00:48:14;24.40;94.00
20946;DHT22;10632;51.276;7.116;2023-07-09T00:50:46;24.30;94.10
20946;DHT22;10632;51.276;7.116;2023-07-09T00:53:17;24.30;94.30
20946;DHT22;10632;51.276;7.116;2023-07-09T00:55:50;24.20;94.40
20946;DHT22;10632;51.276;7.116;2023-07-09T00:58:19;24.20;95.00
20946;DHT22;10632;51.276;7.116;2023-07-09T01:00:54;24.10;94.90
20946;DHT22;10632;51.276;7.116;2023-07-09T01:03:27;24.00;95.00
20946;DHT22;10632;51.276;7.116;2023-07-09T01:05:56;23.90;95.00
20946;DHT22;10632;51.276;7.116;2023-07-09T01:08:23;23.90;95.00
20946;DHT22;10632;51.276;7.116;2023-07-09T01:10:50;23.90;95.00
20946;DHT22;10632;51.276;7.116;2023-07-09T01:13:17;23.90;95.00
20946;DHT22;10632;51.276;7.116;2023-07-09T01:15:45;23.90;95.00
20946;DHT22;10632;51.276;7.116;2023-07-09T01:18:14;23.90;95.10
20946;DHT22;10632;51.276;7.116;2023-07-09T01:20:41;24.00;95.10
20946;DHT22;10632;51.276;7.116;2023-07-09T01:23:10;23.90;95.20
20946;DHT22;10632;51.276;7.116;2023-07-09T01:25:42;23.90;95.40
20946;DHT22;10632;51.276;7.116;2023-07-09T01:28:10;23.90;95.50
20946;DHT22;10632;51.276;7.116;2023-07-09T01:30:39;23.90;95.60
20946;DHT22;10632;51.276;7.116;2023-07-09T01:33:06;23.80;95.70
20946;DHT22;10632;51.276;7.116;2023-07-09T01:35:38;23.70;95.80
20946;DHT22;10632;51.276;7.116;2023-07-09T01:38:08;23.70;96.20
20946;DHT22;10632;51.276;7.116;2023-07-09T01:40:37;23.60;96.30
20946;DHT22;10632;51.276;7.116;2023-07-09T01:43:04;23.50;96.40
20946;DHT22;10632;51.276;7.116;2023-07-09T01:45:33;23.50;96.70
20946;DHT22;10632;51.276;7.116;2023-07-09T01:48:01;23.40;96.80
20946;DHT22;10632;51.276;7.116;2023-07-09T01:50:28;23.40;96.90
20946;DHT22;10632;51.276;7.116;2023-07-09T01:52:56;23.30;96.90
20946;DHT22;10632;51.276;7.116;2023-07-09T01:55:24;23.30;97.10
20946;DHT22;10632;51.276;7.116;2023-07-09T01:57:52;23.30;97.20
20946;DHT22;10632;51.276;7.116;2023-07-09T02:00:19;23.20;97.20
20946;DHT22;10632;51.276;7.116;2023-07-09T02:02:46;23.20;97.20
20946;DHT22;10632;51.276;7.116;2023-07-09T02:05:16;23.20;97.30
20946;DHT22;10632;51.276;7.116;2023-07-09T02:07:44;23.20;97.30
20946;DHT22;10632;51.276;7.116;2023-07-09T02:10:12;23.20;97.50
20946;DHT22;10632;51.276;7.116;2023-07-09T02:12:39;23.20;97.50
20946;DHT22;10632;51.276;7.116;2023-07-09T02:15:09;23.20;97.60
20946;DHT22;10632;51.276;7.116;2023-07-09T02:17:36;23.10;97.60
20946;DHT22;10632;51.276;7.116;2023-07-09T02:20:04;23.10;97.50
20946;DHT22;10632;51.276;7.116;2023-07-09T02:22:32;23.10;97.60
20946;DHT22;10632;51.276;7.116;2023-07-09T02:24:59;23.10;97.70
20946;DHT22;10632;51.276;7.116;2023-07-09T02:27:26;23.00;97.80
20946;DHT22;10632;51.276;7.116;2023-07-09T02:29:54;23.00;97.80
20946;DHT22;10632;51.276;7.116;2023-07-09T02:32:24;23.00;98.00
20946;DHT22;10632;51.276;7.116;2023-07-09T02:34:53;22.90;97.90
20946;DHT22;10632;51.276;7.116;2023-07-09T02:37:21;22.90;97.80
20946;DHT22;10632;51.276;7.116;2023-07-09T02:39:48;22.90;97.80
20946;DHT22;10632;51.276;7.116;2023-07-09T02:42:16;22.90;97.90
20946;DHT22;10632;51.276;7.116;2023-07-09T02:44:44;22.90;98.00
20946;DHT22;10632;51.276;7.116;2023-07-09T02:47:12;22.80;98.20
20946;DHT22;10632;51.276;7.116;2023-07-09T02:49:41;22.80;98.20
20946;DHT22;10632;51.276;7.116;2023-07-09T02:52:08;22.80;98.30
20946;DHT22;10632;51.276;7.116;2023-07-09T02:54:36;22.70;98.60
20946;DHT22;10632;51.276;7.116;2023-07-09T02:57:03;22.70;98.80
20946;DHT22;10632;51.276;7.116;2023-07-09T02:59:31;22.60;98.90
20946;DHT22;10632;51.276;7.116;2023-07-09T03:01:59;22.60;99.10
20946;DHT22;10632;51.276;7.116;2023-07-09T03:04:26;22.50;99.00
20946;DHT22;10632;51.276;7.116;2023-07-09T03:07:01;22.50;99.10
20946;DHT22;10632;51.276;7.116;2023-07-09T03:09:29;22.40;99.20
20946;DHT22;10632;51.276;7.116;2023-07-09T03:11:56;22.40;99.40
20946;DHT22;10632;51.276;7.116;2023-07-09T03:14:23;22.30;99.30
20946;DHT22;10632;51.276;7.116;2023-07-09T03:16:52;22.30;99.40
20946;DHT22;10632;51.276;7.116;2023-07-09T03:19:19;22.30;99.70
20946;DHT22;10632;51.276;7.116;2023-07-09T03:21:47;22.30;99.60
20946;DHT22;10632;51.276;7.116;2023-07-09T03:24:15;22.30;99.70
20946;DHT22;10632;51.276;7.116;2023-07-09T03:26:44;22.20;99.60
20946;DHT22;10632;51.276;7.116;2023-07-09T03:29:11;22.30;99.60
20946;DHT22;10632;51.276;7.116;2023-07-09T03:31:41;22.30;99.60
20946;DHT22;10632;51.276;7.116;2023-07-09T03:34:09;22.30;99.90
20946;DHT22;10632;51.276;7.116;2023-07-09T03:36:36;22.30;99.80
20946;DHT22;10632;51.276;7.116;2023-07-09T03:39:04;22.30;99.90
20946;DHT22;10632;51.276;7.116;2023-07-09T03:41:33;22.20;99.80
20946;DHT22;10632;51.276;7.116;2023-07-09T03:44:00;22.30;99.80
20946;DHT22;10632;51.276;7.116;2023-07-09T03:46:27;22.30;99.50
20946;DHT22;10632;51.276;7.116;2023-07-09T03:48:55;22.30;99.40
20946;DHT22;10632;51.276;7.116;2023-07-09T03:51:22;22.40;99.40
20946;DHT22;10632;51.276;7.116;2023-07-09T03:53:49;22.40;99.60
20946;DHT22;10632;51.276;7.116;2023-07-09T03:56:16;22.50;99.70
20946;DHT22;10632;51.276;7.116;2023-07-09T03:58:45;22.40;99.70
20946;DHT22;10632;51.276;7.116;2023-07-09T04:01:12;22.40;99.90
20946;DHT22;10632;51.276;7.116;2023-07-09T04:03:39;22.40;99.90
20946;DHT22;10632;51.276;7.116;2023-07-09T04:06:06;22.30;99.90
20946;DHT22;10632;51.276;7.116;2023-07-09T04:08:33;22.20;99.90
20946;DHT22;10632;51.276;7.116;2023-07-09T04:11:02;22.20;99.90
20946;DHT22;10632;51.276;7.116;2023-07-09T04:13:29;22.10;99.90
20946;DHT22;10632;51.276;7.116;2023-07-09T04:15:57;22.10;99.90
20946;DHT22;10632;51.276;7.116;2023-07-09T04:18:24;22.00;99.90
20946;DHT22;10632;51.276;7.116;2023-07-09T04:20:51;22.00;99.90
20946;DHT22;10632;51.276;7.116;2023-07-09T04:23:19;22.00;99.90
20946;DHT22;10632;51.276;7.116;2023-07-09T04:25:47;22.00;99.90
20946;DHT22;10632;51.276;7.116;2023-07-09T04:28:14;22.00;99.90
20946;DHT22;10632;51.276;7.116;2023-07-09T04:30:48;22.00;99.90
20946;DHT22;10632;51.276;7.116;2023-07-09T04:33:16;21.90;99.90
20946;DHT22;10632;51.276;7.116;2023-07-09T04:35:44;21.90;99.90
20946;DHT22;10632;51.276;7.116;2023-07-09T04:38:11;21.90;99.90
20946;DHT22;10632;51.276;7.116;2023-07-09T04:40:38;21.90;99.90
20946;DHT22;10632;51.276;7.116;2023-07-09T04:43:05;21.90;99.90
20946;DHT22;10632;51.276;7.116;2023-07-09T04:45:32;21.90;99.90
20946;DHT22;10632;51.276;7.116;2023-07-09T04:48:00;21.90;99.90
20946;DHT22;10632;51.276;7.116;2023-07-09T04:50:28;21.90;99.90
20946;DHT22;10632;51.276;7.116;2023-07-09T04:52:55;21.90;99.90
20946;DHT22;10632;51.276;7.116;2023-07-09T04:55:24;21.90;99.90
20946;DHT22;10632;51.276;7.116;2023-07-09T04:57:52;21.80;99.90
20946;DHT22;10632;51.276;7.116;2023-07-09T05:00:19;21.80;99.90
20946;DHT22;10632;51.276;7.116;2023-07-09T05:02:46;21.80;99.90
20946;DHT22;10632;51.276;7.116;2023-07-09T05:05:12;21.80;99.90
20946;DHT22;10632;51.276;7.116;2023-07-09T05:07:41;21.70;99.90
20946;DHT22;10632;51.276;7.116;2023-07-09T05:10:09;21.70;99.90
20946;DHT22;10632;51.276;7.116;2023-07-09T05:12:36;21.70;99.90
20946;DHT22;10632;51.276;7.116;2023-07-09T05:15:13;21.70;99.90
20946;DHT22;10632;51.276;7.116;2023-07-09T05:17:44;21.70;99.90
20946;DHT22;10632;51.276;7.116;2023-07-09T05:20:11;21.70;99.90
20946;DHT22;10632;51.276;7.116;2023-07-09T05:22:38;21.70;99.90
20946;DHT22;10632;51.276;7.116;2023-07-09T05:25:07;21.70;99.90
20946;DHT22;10632;51.276;7.116;2023-07-09T05:27:34;21.70;99.90
20946;DHT22;10632;51.276;7.116;2023-07-09T05:30:01;21.70;99.90
20946;DHT22;10632;51.276;7.116;2023-07-09T05:32:27;21.70;99.90
20946;DHT22;10632;51.276;7.116;2023-07-09T05:34:54;21.80;99.90
20946;DHT22;10632;51.276;7.116;2023-07-09T05:37:21;21.70;99.90
20946;DHT22;10632;51.276;7.116;2023-07-09T05:39:48;21.80;99.90
20946;DHT22;10632;51.276;7.116;2023-07-09T05:42:16;21.80;99.90
20946;DHT22;10632;51.276;7.116;2023-07-09T05:44:44;21.80;99.90
20946;DHT22;10632;51.276;7.116;2023-07-09T05:47:10;21.90;99.90
20946;DHT22;10632;51.276;7.116;2023-07-09T05:49:38;21.90;99.90
20946;DHT22;10632;51.276;7.116;2023-07-09T05:52:05;21.90;99.90
20946;DHT22;10632;51.276;7.116;2023-07-09T05:54:33;21.90;99.90
20946;DHT22;10632;51.276;7.116;2023-07-09T05:57:00;22.00;99.90
20946;DHT22;10632;51.276;7.116;2023-07-09T05:59:28;22.00;99.90
20946;DHT22;10632;51.276;7.116;2023-07-09T06:01:55;22.10;99.90
20946;DHT22;10632;51.276;7.116;2023-07-09T06:04:22;22.10;99.90
20946;DHT22;10632;51.276;7.116;2023-07-09T06:06:50;22.20;99.90
20946;DHT22;10632;51.276;7.116;2023-07-09T06:09:18;22.20;99.90
20946;DHT22;10632;51.276;7.116;2023-07-09T06:11:44;22.20;99.90
20946;DHT22;10632;51.276;7.116;2023-07-09T06:14:11;22.30;99.90
20946;DHT22;10632;51.276;7.116;2023-07-09T06:16:41;22.40;99.90
20946;DHT22;10632;51.276;7.116;2023-07-09T06:19:09;22.40;99.90
20946;DHT22;10632;51.276;7.116;2023-07-09T06:21:35;22.50;99.90
20946;DHT22;10632;51.276;7.116;2023-07-09T06:24:03;22.60;99.90
20946;DHT22;10632;51.276;7.116;2023-07-09T06:26:30;22.60;99.90
20946;DHT22;10632;51.276;7.116;2023-07-09T06:28:57;22.70;99.90
20946;DHT22;10632;51.276;7.116;2023-07-09T06:31:23;22.70;99.90
20946;DHT22;10632;51.276;7.116;2023-07-09T06:33:52;22.80;99.90
20946;DHT22;10632;51.276;7.116;2023-07-09T06:36:19;22.90;99.90
20946;DHT22;10632;51.276;7.116;2023-07-09T06:38:46;22.90;99.90
20946;DHT22;10632;51.276;7.116;2023-07-09T06:41:14;23.00;99.90
20946;DHT22;10632;51.276;7.116;2023-07-09T06:43:41;23.10;99.90
20946;DHT22;10632;51.276;7.116;2023-07-09T06:46:11;23.20;99.90
20946;DHT22;10632;51.276;7.116;2023-07-09T06:48:38;23.20;99.90
20946;DHT22;10632;51.276;7.116;2023-07-09T06:51:06;23.30;99.90
20946;DHT22;10632;51.276;7.116;2023-07-09T06:53:33;23.40;99.90
20946;DHT22;10632;51.276;7.116;2023-07-09T06:56:00;23.40;99.90
20946;DHT22;10632;51.276;7.116;2023-07-09T06:58:28;23.50;99.90
20946;DHT22;10632;51.276;7.116;2023-07-09T07:00:59;23.60;99.90
20946;DHT22;10632;51.276;7.116;2023-07-09T07:03:32;23.60;99.90
20946;DHT22;10632;51.276;7.116;2023-07-09T07:05:59;23.70;99.90
20946;DHT22;10632;51.276;7.116;2023-07-09T07:08:27;23.80;99.90
20946;DHT22;10632;51.276;7.116;2023-07-09T07:10:56;23.80;99.90
20946;DHT22;10632;51.276;7.116;2023-07-09T07:13:27;23.90;99.90
20946;DHT22;10632;51.276;7.116;2023-07-09T07:15:54;24.00;99.90
20946;DHT22;10632;51.276;7.116;2023-07-09T07:18:21;24.00;99.90
20946;DHT22;10632;51.276;7.116;2023-07-09T07:20:49;24.10;99.90
20946;DHT22;10632;51.276;7.116;2023-07-09T07:23:16;24.20;99.90
20946;DHT22;10632;51.276;7.116;2023-07-09T07:25:46;24.30;99.90
20946;DHT22;10632;51.276;7.116;2023-07-09T07:28:13;24.40;99.90
20946;DHT22;10632;51.276;7.116;2023-07-09T07:30:40;24.40;99.90
20946;DHT22;10632;51.276;7.116;2023-07-09T07:33:07;24.50;99.90
20946;DHT22;10632;51.276;7.116;2023-07-09T07:35:34;24.50;99.90
20946;DHT22;10632;51.276;7.116;2023-07-09T07:38:01;24.60;99.90
20946;DHT22;10632;51.276;7.116;2023-07-09T07:40:29;24.60;99.90
20946;DHT22;10632;51.276;7.116;2023-07-09T07:42:57;24.70;99.90
20946;DHT22;10632;51.276;7.116;2023-07-09T07:45:24;24.80;99.90
20946;DHT22;10632;51.276;7.116;2023-07-09T07:47:51;25.00;99.90
20946;DHT22;10632;51.276;7.116;2023-07-09T07:50:18;25.10;99.90
20946;DHT22;10632;51.276;7.116;2023-07-09T07:52:45;25.10;99.90
20946;DHT22;10632;51.276;7.116;2023-07-09T07:55:12;25.20;99.90
20946;DHT22;10632;51.276;7.116;2023-07-09T07:57:39;25.40;99.90
20946;DHT22;10632;51.276;7.116;2023-07-09T08:00:09;25.40;99.90
20946;DHT22;10632;51.276;7.116;2023-07-09T08:02:36;25.60;99.90
20946;DHT22;10632;51.276;7.116;2023-07-09T08:05:04;25.70;99.90
20946;DHT22;10632;51.276;7.116;2023-07-09T08:07:31;25.80;99.90
20946;DHT22;10632;51.276;7.116;2023-07-09T08:09:58;25.90;99.90
20946;DHT22;10632;51.276;7.116;2023-07-09T08:12:25;25.90;99.90
20946;DHT22;10632;51.276;7.116;2023-07-09T08:14:51;26.00;99.90
20946;DHT22;10632;51.276;7.116;2023-07-09T08:17:20;26.10;99.90
20946;DHT22;10632;51.276;7.116;2023-07-09T08:19:48;26.30;99.90
20946;DHT22;10632;51.276;7.116;2023-07-09T08:22:15;26.30;99.90
20946;DHT22;10632;51.276;7.116;2023-07-09T08:24:42;26.40;99.90
20946;DHT22;10632;51.276;7.116;2023-07-09T08:27:10;26.50;99.90
20946;DHT22;10632;51.276;7.116;2023-07-09T08:29:37;26.60;99.90
20946;DHT22;10632;51.276;7.116;2023-07-09T08:32:05;26.70;99.90
20946;DHT22;10632;51.276;7.116;2023-07-09T08:34:34;26.80;99.90
20946;DHT22;10632;51.276;7.116;2023-07-09T08:37:01;27.00;99.90
20946;DHT22;10632;51.276;7.116;2023-07-09T08:39:29;27.10;99.90
20946;DHT22;10632;51.276;7.116;2023-07-09T08:42:01;27.20;99.90
20946;DHT22;10632;51.276;7.116;2023-07-09T08:44:49;27.40;99.50
20946;DHT22;10632;51.276;7.116;2023-07-09T08:47:28;27.50;99.70
20946;DHT22;10632;51.276;7.116;2023-07-09T08:50:00;27.70;99.50
20946;DHT22;10632;51.276;7.116;2023-07-09T08:52:31;27.80;98.40
20946;DHT22;10632;51.276;7.116;2023-07-09T08:55:04;28.00;97.80
20946;DHT22;10632;51.276;7.116;2023-07-09T08:57:36;28.30;97.00
20946;DHT22;10632;51.276;7.116;2023-07-09T09:00:11;28.40;96.60
20946;DHT22;10632;51.276;7.116;2023-07-09T09:02:46;28.50;96.60
20946;DHT22;10632;51.276;7.116;2023-07-09T09:05:19;28.60;95.50
20946;DHT22;10632;51.276;7.116;2023-07-09T09:07:51;28.70;94.60
20946;DHT22;10632;51.276;7.116;2023-07-09T09:10:29;28.80;94.60
20946;DHT22;10632;51.276;7.116;2023-07-09T09:13:08;29.00;94.70
20946;DHT22;10632;51.276;7.116;2023-07-09T09:15:39;29.00;94.50
20946;DHT22;10632;51.276;7.116;2023-07-09T09:18:22;29.10;94.40
20946;DHT22;10632;51.276;7.116;2023-07-09T09:20:57;29.20;93.90
20946;DHT22;10632;51.276;7.116;2023-07-09T09:23:38;29.20;93.80
20946;DHT22;10632;51.276;7.116;2023-07-09T09:26:14;29.30;93.50
20946;DHT22;10632;51.276;7.116;2023-07-09T09:28:42;29.40;93.50
20946;DHT22;10632;51.276;7.116;2023-07-09T09:31:10;29.50;92.90
20946;DHT22;10632;51.276;7.116;2023-07-09T09:33:41;29.70;92.70
20946;DHT22;10632;51.276;7.116;2023-07-09T09:36:15;29.70;92.90
20946;DHT22;10632;51.276;7.116;2023-07-09T09:38:42;29.80;92.50
20946;DHT22;10632;51.276;7.116;2023-07-09T09:41:14;30.00;92.40
20946;DHT22;10632;51.276;7.116;2023-07-09T09:43:43;30.10;92.40
20946;DHT22;10632;51.276;7.116;2023-07-09T09:46:22;30.20;92.50
20946;DHT22;10632;51.276;7.116;2023-07-09T09:48:50;30.40;91.70
20946;DHT22;10632;51.276;7.116;2023-07-09T09:51:19;30.50;91.30
20946;DHT22;10632;51.276;7.116;2023-07-09T09:53:48;30.70;91.10
20946;DHT22;10632;51.276;7.116;2023-07-09T09:56:19;30.80;90.90
20946;DHT22;10632;51.276;7.116;2023-07-09T09:58:52;30.90;91.00
20946;DHT22;10632;51.276;7.116;2023-07-09T10:01:21;30.90;90.90
20946;DHT22;10632;51.276;7.116;2023-07-09T10:03:51;30.90;91.00
20946;DHT22;10632;51.276;7.116;2023-07-09T10:06:33;31.00;90.80
20946;DHT22;10632;51.276;7.116;2023-07-09T10:09:05;31.00;91.20
20946;DHT22;10632;51.276;7.116;2023-07-09T10:11:45;31.10;90.60
20946;DHT22;10632;51.276;7.116;2023-07-09T10:14:29;31.30;90.50
20946;DHT22;10632;51.276;7.116;2023-07-09T10:17:07;31.50;90.50
20946;DHT22;10632;51.276;7.116;2023-07-09T10:19:46;31.70;90.00
20946;DHT22;10632;51.276;7.116;2023-07-09T10:22:23;31.90;88.80
20946;DHT22;10632;51.276;7.116;2023-07-09T10:24:59;32.00;88.00
20946;DHT22;10632;51.276;7.116;2023-07-09T10:27:35;32.10;87.40
20946;DHT22;10632;51.276;7.116;2023-07-09T10:30:17;32.20;86.50
20946;DHT22;10632;51.276;7.116;2023-07-09T10:32:57;32.30;86.40
20946;DHT22;10632;51.276;7.116;2023-07-09T10:35:32;32.30;86.00
20946;DHT22;10632;51.276;7.116;2023-07-09T10:38:27;32.30;86.10
20946;DHT22;10632;51.276;7.116;2023-07-09T10:40:59;32.40;86.90
20946;DHT22;10632;51.276;7.116;2023-07-09T10:43:33;32.60;86.60
20946;DHT22;10632;51.276;7.116;2023-07-09T10:46:05;32.70;86.90
20946;DHT22;10632;51.276;7.116;2023-07-09T10:48:40;32.80;85.80
20946;DHT22;10632;51.276;7.116;2023-07-09T10:51:19;32.80;85.90
20946;DHT22;10632;51.276;7.116;2023-07-09T10:53:52;32.90;83.70
20946;DHT22;10632;51.276;7.116;2023-07-09T10:56:24;33.00;83.00
20946;DHT22;10632;51.276;7.116;2023-07-09T10:58:56;33.00;83.60
20946;DHT22;10632;51.276;7.116;2023-07-09T11:01:29;33.00;85.30
20946;DHT22;10632;51.276;7.116;2023-07-09T11:04:00;33.00;84.00
20946;DHT22;10632;51.276;7.116;2023-07-09T11:06:32;33.10;83.50
20946;DHT22;10632;51.276;7.116;2023-07-09T11:09:04;33.20;82.40
20946;DHT22;10632;51.276;7.116;2023-07-09T11:11:36;33.30;82.10
20946;DHT22;10632;51.276;7.116;2023-07-09T11:14:05;33.40;83.20
20946;DHT22;10632;51.276;7.116;2023-07-09T11:16:38;33.40;83.80
20946;DHT22;10632;51.276;7.116;2023-07-09T11:19:13;33.50;83.70
20946;DHT22;10632;51.276;7.116;2023-07-09T11:21:45;33.50;81.50
20946;DHT22;10632;51.276;7.116;2023-07-09T11:24:36;33.60;81.90
20946;DHT22;10632;51.276;7.116;2023-07-09T11:27:22;33.60;81.00
20946;DHT22;10632;51.276;7.116;2023-07-09T11:29:57;33.70;81.20
20946;DHT22;10632;51.276;7.116;2023-07-09T11:32:25;33.80;81.40
20946;DHT22;10632;51.276;7.116;2023-07-09T11:34:53;33.80;80.30
20946;DHT22;10632;51.276;7.116;2023-07-09T11:37:25;33.90;78.40
20946;DHT22;10632;51.276;7.116;2023-07-09T11:39:54;34.00;78.10
20946;DHT22;10632;51.276;7.116;2023-07-09T11:42:31;34.00;77.40
20946;DHT22;10632;51.276;7.116;2023-07-09T11:45:07;34.00;78.10
20946;DHT22;10632;51.276;7.116;2023-07-09T11:47:38;34.00;78.10
20946;DHT22;10632;51.276;7.116;2023-07-09T11:50:20;34.00;79.40
20946;DHT22;10632;51.276;7.116;2023-07-09T11:52:51;34.00;78.40
20946;DHT22;10632;51.276;7.116;2023-07-09T11:55:25;34.00;77.20
20946;DHT22;10632;51.276;7.116;2023-07-09T11:57:53;34.10;77.70
20946;DHT22;10632;51.276;7.116;2023-07-09T12:00:20;34.10;78.10
20946;DHT22;10632;51.276;7.116;2023-07-09T12:02:51;34.00;77.80
20946;DHT22;10632;51.276;7.116;2023-07-09T12:05:25;34.00;78.20
20946;DHT22;10632;51.276;7.116;2023-07-09T12:07:53;33.90;77.80
20946;DHT22;10632;51.276;7.116;2023-07-09T12:10:23;33.90;78.10
20946;DHT22;10632;51.276;7.116;2023-07-09T12:12:54;33.90;77.30
20946;DHT22;10632;51.276;7.116;2023-07-09T12:15:24;34.00;78.00
20946;DHT22;10632;51.276;7.116;2023-07-09T12:17:59;34.10;77.40
20946;DHT22;10632;51.276;7.116;2023-07-09T12:20:28;34.20;77.10
20946;DHT22;10632;51.276;7.116;2023-07-09T12:22:56;34.10;77.80
20946;DHT22;10632;51.276;7.116;2023-07-09T12:25:27;34.10;78.80
20946;DHT22;10632;51.276;7.116;2023-07-09T12:27:54;34.10;79.10
20946;DHT22;10632;51.276;7.116;2023-07-09T12:30:21;34.00;79.30
20946;DHT22;10632;51.276;7.116;2023-07-09T12:32:51;33.90;79.50
20946;DHT22;10632;51.276;7.116;2023-07-09T12:35:19;33.90;80.30
20946;DHT22;10632;51.276;7.116;2023-07-09T12:37:47;33.90;80.50
20946;DHT22;10632;51.276;7.116;2023-07-09T12:40:27;33.90;80.90
20946;DHT22;10632;51.276;7.116;2023-07-09T12:42:56;33.90;80.50
20946;DHT22;10632;51.276;7.116;2023-07-09T12:45:24;33.90;79.60
20946;DHT22;10632;51.276;7.116;2023-07-09T12:47:51;33.90;79.90
20946;DHT22;10632;51.276;7.116;2023-07-09T12:50:29;33.90;79.80
20946;DHT22;10632;51.276;7.116;2023-07-09T12:53:01;33.90;79.60
20946;DHT22;10632;51.276;7.116;2023-07-09T12:55:29;34.00;79.80
20946;DHT22;10632;51.276;7.116;2023-07-09T12:58:09;33.90;79.30
20946;DHT22;10632;51.276;7.116;2023-07-09T13:00:36;33.80;79.20
20946;DHT22;10632;51.276;7.116;2023-07-09T13:03:12;33.80;79.70
20946;DHT22;10632;51.276;7.116;2023-07-09T13:05:51;33.70;79.30
20946;DHT22;10632;51.276;7.116;2023-07-09T13:08:18;33.60;79.60
20946;DHT22;10632;51.276;7.116;2023-07-09T13:10:45;33.50;82.30
20946;DHT22;10632;51.276;7.116;2023-07-09T13:13:19;33.40;80.90
20946;DHT22;10632;51.276;7.116;2023-07-09T13:15:49;33.30;80.50
20946;DHT22;10632;51.276;7.116;2023-07-09T13:18:17;33.20;82.60
20946;DHT22;10632;51.276;7.116;2023-07-09T13:20:46;33.20;81.80
20946;DHT22;10632;51.276;7.116;2023-07-09T13:23:15;33.10;80.90
20946;DHT22;10632;51.276;7.116;2023-07-09T13:25:43;33.00;80.80
20946;DHT22;10632;51.276;7.116;2023-07-09T13:28:17;32.90;80.50
20946;DHT22;10632;51.276;7.116;2023-07-09T13:30:45;32.90;80.80
20946;DHT22;10632;51.276;7.116;2023-07-09T13:33:12;32.80;81.30
20946;DHT22;10632;51.276;7.116;2023-07-09T13:35:40;32.70;80.90
20946;DHT22;10632;51.276;7.116;2023-07-09T13:38:14;32.70;81.20
20946;DHT22;10632;51.276;7.116;2023-07-09T13:40:43;32.70;81.40
20946;DHT22;10632;51.276;7.116;2023-07-09T13:43:13;32.60;81.90
20946;DHT22;10632;51.276;7.116;2023-07-09T13:45:41;32.60;81.80
20946;DHT22;10632;51.276;7.116;2023-07-09T13:48:14;32.50;81.80
20946;DHT22;10632;51.276;7.116;2023-07-09T13:50:43;32.40;82.50
20946;DHT22;10632;51.276;7.116;2023-07-09T13:53:14;32.40;83.10
20946;DHT22;10632;51.276;7.116;2023-07-09T13:55:41;32.20;83.20
20946;DHT22;10632;51.276;7.116;2023-07-09T13:58:09;32.20;83.70
20946;DHT22;10632;51.276;7.116;2023-07-09T14:00:37;32.10;85.50
20946;DHT22;10632;51.276;7.116;2023-07-09T14:03:12;31.90;85.50
20946;DHT22;10632;51.276;7.116;2023-07-09T14:05:40;31.70;87.40
20946;DHT22;10632;51.276;7.116;2023-07-09T14:08:07;31.70;87.40
20946;DHT22;10632;51.276;7.116;2023-07-09T14:10:34;31.50;88.60
20946;DHT22;10632;51.276;7.116;2023-07-09T14:13:01;31.40;89.70
20946;DHT22;10632;51.276;7.116;2023-07-09T14:15:29;31.20;89.70
20946;DHT22;10632;51.276;7.116;2023-07-09T14:17:55;31.10;89.00
20946;DHT22;10632;51.276;7.116;2023-07-09T14:20:24;31.10;88.20
20946;DHT22;10632;51.276;7.116;2023-07-09T14:22:51;31.00;89.30
20946;DHT22;10632;51.276;7.116;2023-07-09T14:25:21;31.00;88.40
20946;DHT22;10632;51.276;7.116;2023-07-09T14:27:49;31.00;88.80
20946;DHT22;10632;51.276;7.116;2023-07-09T14:30:17;31.00;87.90
20946;DHT22;10632;51.276;7.116;2023-07-09T14:32:47;31.00;87.30
20946;DHT22;10632;51.276;7.116;2023-07-09T14:35:16;31.00;87.60
20946;DHT22;10632;51.276;7.116;2023-07-09T14:37:46;30.90;90.30
20946;DHT22;10632;51.276;7.116;2023-07-09T14:40:14;30.50;92.70
20946;DHT22;10632;51.276;7.116;2023-07-09T14:42:41;29.80;95.40
20946;DHT22;10632;51.276;7.116;2023-07-09T14:45:17;29.00;96.40
20946;DHT22;10632;51.276;7.116;2023-07-09T14:47:45;28.00;98.40
20946;DHT22;10632;51.276;7.116;2023-07-09T14:50:12;27.20;99.90
20946;DHT22;10632;51.276;7.116;2023-07-09T14:52:40;26.40;99.90
20946;DHT22;10632;51.276;7.116;2023-07-09T14:55:15;25.80;99.90
20946;DHT22;10632;51.276;7.116;2023-07-09T14:57:42;25.20;99.90
20946;DHT22;10632;51.276;7.116;2023-07-09T15:00:13;24.70;99.90
20946;DHT22;10632;51.276;7.116;2023-07-09T15:02:42;24.10;99.90
20946;DHT22;10632;51.276;7.116;2023-07-09T15:05:13;23.60;99.90
20946;DHT22;10632;51.276;7.116;2023-07-09T15:07:40;23.00;99.90
20946;DHT22;10632;51.276;7.116;2023-07-09T15:10:14;22.40;99.90
20946;DHT22;10632;51.276;7.116;2023-07-09T15:12:42;21.90;99.90
20946;DHT22;10632;51.276;7.116;2023-07-09T15:15:18;21.50;99.90
20946;DHT22;10632;51.276;7.116;2023-07-09T15:17:46;21.30;99.90
20946;DHT22;10632;51.276;7.116;2023-07-09T15:20:18;21.20;99.90
20946;DHT22;10632;51.276;7.116;2023-07-09T15:22:46;21.10;99.90
20946;DHT22;10632;51.276;7.116;2023-07-09T15:25:16;21.10;99.90
20946;DHT22;10632;51.276;7.116;2023-07-09T15:27:43;21.10;99.90
20946;DHT22;10632;51.276;7.116;2023-07-09T15:30:16;21.10;99.90
20946;DHT22;10632;51.276;7.116;2023-07-09T15:32:44;21.10;99.90
20946;DHT22;10632;51.276;7.116;2023-07-09T15:35:11;21.00;99.90
20946;DHT22;10632;51.276;7.116;2023-07-09T15:37:38;21.00;99.90
20946;DHT22;10632;51.276;7.116;2023-07-09T15:40:17;20.90;99.90
20946;DHT22;10632;51.276;7.116;2023-07-09T15:42:46;20.80;99.90
20946;DHT22;10632;51.276;7.116;2023-07-09T15:45:20;20.90;99.90